sensor_id;sensor_type;location;lat;lon;timestamp;temperature;humidity
71879;DHT22;59755;43.834;4.364;2023-03-31T00:01:32;13.40;86.60
71879;DHT22;59755;43.834;4.364;2023-03-31T00:03:58;13.40;86.50
71879;DHT22;59755;43.834;4.364;2023-03-31T00:06:33;13.20;87.50
71879;DHT22;59755;43.834;4.364;2023-03-31T00:09:03;13.10;88.50
71879;DHT22;59755;43.834;4.364;2023-03-31T00:11:29;13.20;88.60
71879;DHT22;59755;43.834;4.364;2023-03-31T00:13:54;13.10;88.20
71879;DHT22;59755;43.834;4.364;2023-03-31T00:16:20;13.20;88.30
71879;DHT22;59755;43.834;4.364;2023-03-31T00:18:46;13.30;87.50
71879;DHT22;59755;43.834;4.364;2023-03-31T00:21:21;13.20;88.30
71879;DHT22;59755;43.834;4.364;2023-03-31T00:23:53;13.20;87.40
71879;DHT22;59755;43.834;4.364;2023-03-31T00:26:19;13.30;87.50
71879;DHT22;59755;43.834;4.364;2023-03-31T00:28:47;13.40;87.10
71879;DHT22;59755;43.834;4.364;2023-03-31T00:31:12;13.30;87.20
71879;DHT22;59755;43.834;4.364;2023-03-31T00:33:38;13.20;87.50
71879;DHT22;59755;43.834;4.364;2023-03-31T00:36:03;13.00;88.10
71879;DHT22;59755;43.834;4.364;2023-03-31T00:38:30;12.80;89.70
71879;DHT22;59755;43.834;4.364;2023-03-31T00:40:57;12.70;90.50
71879;DHT22;59755;43.834;4.364;2023-03-31T00:45:51;13.00;89.70
71879;DHT22;59755;43.834;4.364;2023-03-31T00:48:18;13.00;89.50
71879;DHT22;59755;43.834;4.364;2023-03-31T00:50:46;13.00;89.70
71879;DHT22;59755;43.834;4.364;2023-03-31T00:53:14;13.10;89.30
71879;DHT22;59755;43.834;4.364;2023-03-31T00:55:47;13.20;88.40
71879;DHT22;59755;43.834;4.364;2023-03-31T00:58:13;13.20;87.70
71879;DHT22;59755;43.834;4.364;2023-03-31T01:00:47;13.20;87.50
71879;DHT22;59755;43.834;4.364;2023-03-31T01:03:14;13.20;87.40
71879;DHT22;59755;43.834;4.364;2023-03-31T01:05:44;13.10;88.00
71879;DHT22;59755;43.834;4.364;2023-03-31T01:08:12;13.10;88.10
71879;DHT22;59755;43.834;4.364;2023-03-31T01:10:39;13.10;88.70
71879;DHT22;59755;43.834;4.364;2023-03-31T01:13:07;13.10;88.80
71879;DHT22;59755;43.834;4.364;2023-03-31T01:15:33;13.30;87.90
71879;DHT22;59755;43.834;4.364;2023-03-31T01:17:58;13.40;87.10
71879;DHT22;59755;43.834;4.364;2023-03-31T01:20:50;13.40;86.60
71879;DHT22;59755;43.834;4.364;2023-03-31T01:23:31;13.30;86.60
71879;DHT22;59755;43.834;4.364;2023-03-31T01:44:19;13.30;87.10
71879;DHT22;59755;43.834;4.364;2023-03-31T01:56:36;13.60;85.40
71879;DHT22;59755;43.834;4.364;2023-03-31T01:59:23;13.60;84.90
71879;DHT22;59755;43.834;4.364;2023-03-31T02:04:39;13.50;84.90
71879;DHT22;59755;43.834;4.364;2023-03-31T02:07:08;13.50;84.90
71879;DHT22;59755;43.834;4.364;2023-03-31T02:09:40;13.50;85.40
71879;DHT22;59755;43.834;4.364;2023-03-31T02:12:09;13.60;84.80
71879;DHT22;59755;43.834;4.364;2023-03-31T02:14:35;13.70;84.10
71879;DHT22;59755;43.834;4.364;2023-03-31T02:17:03;13.60;84.10
71879;DHT22;59755;43.834;4.364;2023-03-31T02:19:34;13.50;84.40
71879;DHT22;59755;43.834;4.364;2023-03-31T02:22:00;13.60;84.10
71879;DHT22;59755;43.834;4.364;2023-03-31T02:24:27;13.70;84.10
71879;DHT22;59755;43.834;4.364;2023-03-31T02:26:57;13.60;84.10
71879;DHT22;59755;43.834;4.364;2023-03-31T02:29:25;13.60;83.90
71879;DHT22;59755;43.834;4.364;2023-03-31T02:32:25;13.60;84.30
71879;DHT22;59755;43.834;4.364;2023-03-31T02:34:42;13.70;84.30
71879;DHT22;59755;43.834;4.364;2023-03-31T02:37:08;13.60;85.00
71879;DHT22;59755;43.834;4.364;2023-03-31T02:39:34;13.50;85.50
71879;DHT22;59755;43.834;4.364;2023-03-31T02:42:04;13.50;85.30
71879;DHT22;59755;43.834;4.364;2023-03-31T02:44:35;13.50;85.80
71879;DHT22;59755;43.834;4.364;2023-03-31T02:47:01;13.60;85.50
71879;DHT22;59755;43.834;4.364;2023-03-31T02:49:28;13.50;85.80
71879;DHT22;59755;43.834;4.364;2023-03-31T03:05:05;13.20;88.50
71879;DHT22;59755;43.834;4.364;2023-03-31T03:15:10;13.20;89.00
71879;DHT22;59755;43.834;4.364;2023-03-31T03:17:41;13.30;88.70
71879;DHT22;59755;43.834;4.364;2023-03-31T03:20:08;13.30;88.60
71879;DHT22;59755;43.834;4.364;2023-03-31T03:22:34;13.30;88.10
71879;DHT22;59755;43.834;4.364;2023-03-31T03:25:00;13.40;87.70
71879;DHT22;59755;43.834;4.364;2023-03-31T03:27:26;13.20;87.50
71879;DHT22;59755;43.834;4.364;2023-03-31T03:29:52;13.10;88.60
71879;DHT22;59755;43.834;4.364;2023-03-31T03:32:18;13.20;88.30
71879;DHT22;59755;43.834;4.364;2023-03-31T03:34:43;13.30;87.70
71879;DHT22;59755;43.834;4.364;2023-03-31T03:37:09;13.40;87.50
71879;DHT22;59755;43.834;4.364;2023-03-31T03:39:35;13.40;87.00
71879;DHT22;59755;43.834;4.364;2023-03-31T03:42:01;13.40;87.20
71879;DHT22;59755;43.834;4.364;2023-03-31T03:44:27;13.40;87.10
71879;DHT22;59755;43.834;4.364;2023-03-31T03:46:52;13.40;87.10
71879;DHT22;59755;43.834;4.364;2023-03-31T03:49:18;13.40;86.70
71879;DHT22;59755;43.834;4.364;2023-03-31T03:51:44;13.40;87.00
71879;DHT22;59755;43.834;4.364;2023-03-31T03:54:10;13.50;86.40
71879;DHT22;59755;43.834;4.364;2023-03-31T03:56:36;13.40;86.40
71879;DHT22;59755;43.834;4.364;2023-03-31T03:59:01;13.40;86.60
71879;DHT22;59755;43.834;4.364;2023-03-31T04:01:27;13.40;86.70
71879;DHT22;59755;43.834;4.364;2023-03-31T04:03:52;13.40;86.70
71879;DHT22;59755;43.834;4.364;2023-03-31T04:06:18;13.40;86.50
71879;DHT22;59755;43.834;4.364;2023-03-31T04:08:44;13.50;86.20
71879;DHT22;59755;43.834;4.364;2023-03-31T04:11:17;13.50;85.90
71879;DHT22;59755;43.834;4.364;2023-03-31T04:13:43;13.50;85.90
71879;DHT22;59755;43.834;4.364;2023-03-31T04:16:09;13.50;85.80
71879;DHT22;59755;43.834;4.364;2023-03-31T04:18:34;13.40;86.00
71879;DHT22;59755;43.834;4.364;2023-03-31T04:21:01;13.50;86.00
71879;DHT22;59755;43.834;4.364;2023-03-31T04:23:34;13.50;85.80
71879;DHT22;59755;43.834;4.364;2023-03-31T04:26:02;13.60;85.60
71879;DHT22;59755;43.834;4.364;2023-03-31T04:28:36;13.60;85.20
71879;DHT22;59755;43.834;4.364;2023-03-31T04:31:03;13.40;85.70
71879;DHT22;59755;43.834;4.364;2023-03-31T04:33:31;13.50;86.00
71879;DHT22;59755;43.834;4.364;2023-03-31T04:35:58;13.50;85.10
71879;DHT22;59755;43.834;4.364;2023-03-31T04:38:31;13.50;85.60
71879;DHT22;59755;43.834;4.364;2023-03-31T04:40:58;13.50;84.90
71879;DHT22;59755;43.834;4.364;2023-03-31T04:43:24;13.50;84.70
71879;DHT22;59755;43.834;4.364;2023-03-31T04:45:50;13.50;85.10
71879;DHT22;59755;43.834;4.364;2023-03-31T04:48:15;13.40;85.30
71879;DHT22;59755;43.834;4.364;2023-03-31T04:50:41;13.50;85.40
71879;DHT22;59755;43.834;4.364;2023-03-31T04:53:07;13.50;84.70
71879;DHT22;59755;43.834;4.364;2023-03-31T04:55:33;13.60;84.70
71879;DHT22;59755;43.834;4.364;2023-03-31T04:57:59;13.40;85.30
71879;DHT22;59755;43.834;4.364;2023-03-31T05:00:24;13.40;85.80
71879;DHT22;59755;43.834;4.364;2023-03-31T05:02:51;13.50;85.10
71879;DHT22;59755;43.834;4.364;2023-03-31T05:05:16;13.40;85.50
71879;DHT22;59755;43.834;4.364;2023-03-31T05:07:42;13.50;85.40
71879;DHT22;59755;43.834;4.364;2023-03-31T05:10:08;13.50;85.20
71879;DHT22;59755;43.834;4.364;2023-03-31T05:12:35;13.50;85.20
71879;DHT22;59755;43.834;4.364;2023-03-31T05:15:00;13.40;85.90
71879;DHT22;59755;43.834;4.364;2023-03-31T05:17:26;13.50;85.70
71879;DHT22;59755;43.834;4.364;2023-03-31T05:19:52;13.50;85.40
71879;DHT22;59755;43.834;4.364;2023-03-31T05:22:17;13.50;85.30
71879;DHT22;59755;43.834;4.364;2023-03-31T05:24:45;13.50;85.80
71879;DHT22;59755;43.834;4.364;2023-03-31T05:27:11;13.50;85.50
71879;DHT22;59755;43.834;4.364;2023-03-31T05:29:36;13.60;85.00
71879;DHT22;59755;43.834;4.364;2023-03-31T05:32:02;13.50;85.20
71879;DHT22;59755;43.834;4.364;2023-03-31T05:34:28;13.60;85.10
71879;DHT22;59755;43.834;4.364;2023-03-31T05:36:53;13.60;84.90
71879;DHT22;59755;43.834;4.364;2023-03-31T05:39:19;13.60;85.00
71879;DHT22;59755;43.834;4.364;2023-03-31T05:41:45;13.50;85.30
71879;DHT22;59755;43.834;4.364;2023-03-31T05:44:11;13.50;84.90
71879;DHT22;59755;43.834;4.364;2023-03-31T05:46:36;13.50;85.30
71879;DHT22;59755;43.834;4.364;2023-03-31T05:49:02;13.40;85.30
71879;DHT22;59755;43.834;4.364;2023-03-31T05:51:28;13.30;85.70
71879;DHT22;59755;43.834;4.364;2023-03-31T05:53:53;13.30;85.80
71879;DHT22;59755;43.834;4.364;2023-03-31T05:56:19;13.30;86.30
71879;DHT22;59755;43.834;4.364;2023-03-31T05:58:44;13.40;86.00
71879;DHT22;59755;43.834;4.364;2023-03-31T06:01:14;13.50;85.10
71879;DHT22;59755;43.834;4.364;2023-03-31T06:03:44;13.40;85.20
71879;DHT22;59755;43.834;4.364;2023-03-31T06:06:10;13.50;85.10
71879;DHT22;59755;43.834;4.364;2023-03-31T06:08:37;13.50;84.90
71879;DHT22;59755;43.834;4.364;2023-03-31T06:11:03;13.50;85.20
71879;DHT22;59755;43.834;4.364;2023-03-31T06:13:29;13.60;84.50
71879;DHT22;59755;43.834;4.364;2023-03-31T06:15:56;13.70;84.00
71879;DHT22;59755;43.834;4.364;2023-03-31T06:18:21;13.70;83.80
71879;DHT22;59755;43.834;4.364;2023-03-31T06:20:47;13.60;84.40
71879;DHT22;59755;43.834;4.364;2023-03-31T06:23:12;13.60;84.40
71879;DHT22;59755;43.834;4.364;2023-03-31T06:25:38;13.60;84.20
71879;DHT22;59755;43.834;4.364;2023-03-31T06:28:04;13.60;84.10
71879;DHT22;59755;43.834;4.364;2023-03-31T06:30:30;13.50;84.40
71879;DHT22;59755;43.834;4.364;2023-03-31T06:32:56;13.50;84.70
71879;DHT22;59755;43.834;4.364;2023-03-31T06:35:21;13.40;84.80
71879;DHT22;59755;43.834;4.364;2023-03-31T06:37:47;13.50;85.00
71879;DHT22;59755;43.834;4.364;2023-03-31T06:40:13;13.60;84.50
71879;DHT22;59755;43.834;4.364;2023-03-31T06:45:56;13.70;84.20
71879;DHT22;59755;43.834;4.364;2023-03-31T06:51:27;13.90;83.20
71879;DHT22;59755;43.834;4.364;2023-03-31T06:53:53;14.00;82.90
71879;DHT22;59755;43.834;4.364;2023-03-31T06:56:18;14.20;82.40
71879;DHT22;59755;43.834;4.364;2023-03-31T06:58:44;14.30;81.40
71879;DHT22;59755;43.834;4.364;2023-03-31T07:01:10;14.30;81.10
71879;DHT22;59755;43.834;4.364;2023-03-31T07:03:36;14.20;81.30
71879;DHT22;59755;43.834;4.364;2023-03-31T07:06:02;14.30;81.10
71879;DHT22;59755;43.834;4.364;2023-03-31T07:08:28;14.30;81.00
71879;DHT22;59755;43.834;4.364;2023-03-31T07:10:54;14.30;81.00
71879;DHT22;59755;43.834;4.364;2023-03-31T07:13:22;14.40;80.10
71879;DHT22;59755;43.834;4.364;2023-03-31T07:15:48;14.40;80.30
71879;DHT22;59755;43.834;4.364;2023-03-31T07:18:14;14.40;80.20
71879;DHT22;59755;43.834;4.364;2023-03-31T07:20:40;14.40;80.40
71879;DHT22;59755;43.834;4.364;2023-03-31T07:23:06;14.50;79.90
71879;DHT22;59755;43.834;4.364;2023-03-31T07:25:33;14.40;80.00
71879;DHT22;59755;43.834;4.364;2023-03-31T07:27:58;14.40;80.10
71879;DHT22;59755;43.834;4.364;2023-03-31T07:30:24;14.40;80.30
71879;DHT22;59755;43.834;4.364;2023-03-31T07:32:50;14.30;80.40
71879;DHT22;59755;43.834;4.364;2023-03-31T07:35:16;14.40;80.40
71879;DHT22;59755;43.834;4.364;2023-03-31T07:37:43;14.50;80.10
71879;DHT22;59755;43.834;4.364;2023-03-31T07:40:10;14.50;79.40
71879;DHT22;59755;43.834;4.364;2023-03-31T07:42:36;14.40;79.80
71879;DHT22;59755;43.834;4.364;2023-03-31T07:45:01;14.50;79.20
71879;DHT22;59755;43.834;4.364;2023-03-31T07:47:30;14.70;78.80
71879;DHT22;59755;43.834;4.364;2023-03-31T07:49:56;14.80;78.40
71879;DHT22;59755;43.834;4.364;2023-03-31T07:52:21;14.90;78.10
71879;DHT22;59755;43.834;4.364;2023-03-31T07:54:47;15.00;77.20
71879;DHT22;59755;43.834;4.364;2023-03-31T07:57:13;15.10;76.80
71879;DHT22;59755;43.834;4.364;2023-03-31T07:59:41;15.40;75.30
71879;DHT22;59755;43.834;4.364;2023-03-31T08:02:08;15.50;74.90
71879;DHT22;59755;43.834;4.364;2023-03-31T08:04:35;15.60;73.80
71879;DHT22;59755;43.834;4.364;2023-03-31T08:07:00;15.30;73.00
71879;DHT22;59755;43.834;4.364;2023-03-31T08:09:26;15.40;73.20
71879;DHT22;59755;43.834;4.364;2023-03-31T08:11:51;15.50;71.30
71879;DHT22;59755;43.834;4.364;2023-03-31T08:14:17;15.50;71.40
71879;DHT22;59755;43.834;4.364;2023-03-31T08:16:42;15.50;71.10
71879;DHT22;59755;43.834;4.364;2023-03-31T08:19:08;15.40;72.20
71879;DHT22;59755;43.834;4.364;2023-03-31T08:21:34;15.30;71.70
71879;DHT22;59755;43.834;4.364;2023-03-31T08:24:02;15.20;72.00
71879;DHT22;59755;43.834;4.364;2023-03-31T08:26:29;15.30;71.70
71879;DHT22;59755;43.834;4.364;2023-03-31T08:28:56;15.20;71.90
71879;DHT22;59755;43.834;4.364;2023-03-31T08:31:23;15.20;72.20
71879;DHT22;59755;43.834;4.364;2023-03-31T08:33:48;15.30;71.90
71879;DHT22;59755;43.834;4.364;2023-03-31T08:36:14;15.50;71.20
71879;DHT22;59755;43.834;4.364;2023-03-31T08:38:41;15.80;70.50
71879;DHT22;59755;43.834;4.364;2023-03-31T08:41:09;16.00;69.30
71879;DHT22;59755;43.834;4.364;2023-03-31T08:43:42;16.00;69.00
71879;DHT22;59755;43.834;4.364;2023-03-31T08:46:09;16.10;68.40
71879;DHT22;59755;43.834;4.364;2023-03-31T08:48:37;16.00;69.00
71879;DHT22;59755;43.834;4.364;2023-03-31T08:56:54;16.10;68.60
71879;DHT22;59755;43.834;4.364;2023-03-31T08:59:31;16.10;68.30
71879;DHT22;59755;43.834;4.364;2023-03-31T09:04:48;16.20;67.70
71879;DHT22;59755;43.834;4.364;2023-03-31T09:14:59;16.10;68.50
71879;DHT22;59755;43.834;4.364;2023-03-31T09:17:33;16.00;68.50
71879;DHT22;59755;43.834;4.364;2023-03-31T09:22:33;16.00;69.10
71879;DHT22;59755;43.834;4.364;2023-03-31T09:25:46;16.10;68.60
71879;DHT22;59755;43.834;4.364;2023-03-31T09:27:46;16.20;68.00
71879;DHT22;59755;43.834;4.364;2023-03-31T09:30:18;16.00;68.80
71879;DHT22;59755;43.834;4.364;2023-03-31T09:32:48;16.20;68.30
71879;DHT22;59755;43.834;4.364;2023-03-31T09:35:17;16.00;68.80
71879;DHT22;59755;43.834;4.364;2023-03-31T09:37:45;16.00;68.80
71879;DHT22;59755;43.834;4.364;2023-03-31T09:40:19;16.20;68.50
71879;DHT22;59755;43.834;4.364;2023-03-31T09:42:45;16.20;68.30
71879;DHT22;59755;43.834;4.364;2023-03-31T09:45:15;16.30;68.30
71879;DHT22;59755;43.834;4.364;2023-03-31T09:47:42;16.70;67.10
71879;DHT22;59755;43.834;4.364;2023-03-31T09:50:09;17.00;65.80
71879;DHT22;59755;43.834;4.364;2023-03-31T09:55:21;16.80;66.20
71879;DHT22;59755;43.834;4.364;2023-03-31T09:57:48;17.10;65.50
71879;DHT22;59755;43.834;4.364;2023-03-31T10:00:18;17.10;65.50
71879;DHT22;59755;43.834;4.364;2023-03-31T10:03:00;17.10;65.60
71879;DHT22;59755;43.834;4.364;2023-03-31T10:05:30;17.30;65.40
71879;DHT22;59755;43.834;4.364;2023-03-31T10:11:23;17.70;63.20
71879;DHT22;59755;43.834;4.364;2023-03-31T10:13:42;17.90;63.40
71879;DHT22;59755;43.834;4.364;2023-03-31T10:16:14;18.00;62.50
71879;DHT22;59755;43.834;4.364;2023-03-31T10:18:45;18.20;62.00
71879;DHT22;59755;43.834;4.364;2023-03-31T10:21:19;18.50;61.10
71879;DHT22;59755;43.834;4.364;2023-03-31T10:23:46;18.80;59.80
71879;DHT22;59755;43.834;4.364;2023-03-31T10:26:13;19.10;59.40
71879;DHT22;59755;43.834;4.364;2023-03-31T10:28:41;19.10;59.10
71879;DHT22;59755;43.834;4.364;2023-03-31T10:31:07;19.40;57.90
71879;DHT22;59755;43.834;4.364;2023-03-31T10:33:33;19.70;57.90
71879;DHT22;59755;43.834;4.364;2023-03-31T10:36:08;20.10;55.40
71879;DHT22;59755;43.834;4.364;2023-03-31T10:38:41;20.50;54.20
71879;DHT22;59755;43.834;4.364;2023-03-31T10:41:09;20.70;52.40
71879;DHT22;59755;43.834;4.364;2023-03-31T10:43:42;21.50;50.10
71879;DHT22;59755;43.834;4.364;2023-03-31T10:46:11;22.20;49.00
71879;DHT22;59755;43.834;4.364;2023-03-31T10:48:38;22.10;49.30
71879;DHT22;59755;43.834;4.364;2023-03-31T10:53:50;22.20;47.10
71879;DHT22;59755;43.834;4.364;2023-03-31T10:56:19;22.70;47.60
71879;DHT22;59755;43.834;4.364;2023-03-31T11:04:23;23.20;44.80
71879;DHT22;59755;43.834;4.364;2023-03-31T11:11:50;22.60;45.00
71879;DHT22;59755;43.834;4.364;2023-03-31T11:14:23;22.10;46.30
71879;DHT22;59755;43.834;4.364;2023-03-31T11:16:55;21.90;46.90
71879;DHT22;59755;43.834;4.364;2023-03-31T11:19:34;22.80;45.10
71879;DHT22;59755;43.834;4.364;2023-03-31T11:32:19;24.70;41.70
71879;DHT22;59755;43.834;4.364;2023-03-31T11:42:28;26.00;36.00
71879;DHT22;59755;43.834;4.364;2023-03-31T11:44:59;26.50;35.00
71879;DHT22;59755;43.834;4.364;2023-03-31T11:47:28;26.80;34.50
71879;DHT22;59755;43.834;4.364;2023-03-31T11:49:56;26.80;34.40
71879;DHT22;59755;43.834;4.364;2023-03-31T11:52:24;26.80;34.30
71879;DHT22;59755;43.834;4.364;2023-03-31T11:57:24;26.40;33.10
71879;DHT22;59755;43.834;4.364;2023-03-31T12:00:02;26.30;32.30
71879;DHT22;59755;43.834;4.364;2023-03-31T12:02:43;26.70;31.40
71879;DHT22;59755;43.834;4.364;2023-03-31T12:05:10;27.40;30.60
71879;DHT22;59755;43.834;4.364;2023-03-31T12:07:41;27.50;30.30
71879;DHT22;59755;43.834;4.364;2023-03-31T12:10:22;27.80;30.00
71879;DHT22;59755;43.834;4.364;2023-03-31T12:15:22;27.10;30.30
71879;DHT22;59755;43.834;4.364;2023-03-31T12:17:51;27.40;30.30
71879;DHT22;59755;43.834;4.364;2023-03-31T12:20:24;27.80;29.60
71879;DHT22;59755;43.834;4.364;2023-03-31T12:22:51;27.20;30.30
71879;DHT22;59755;43.834;4.364;2023-03-31T12:25:19;26.50;31.20
71879;DHT22;59755;43.834;4.364;2023-03-31T12:27:47;26.30;31.30
71879;DHT22;59755;43.834;4.364;2023-03-31T12:30:32;26.20;31.60
71879;DHT22;59755;43.834;4.364;2023-03-31T12:33:10;26.10;31.50
71879;DHT22;59755;43.834;4.364;2023-03-31T12:45:47;25.60;32.30
71879;DHT22;59755;43.834;4.364;2023-03-31T12:56:14;26.10;31.30
71879;DHT22;59755;43.834;4.364;2023-03-31T12:58:40;26.90;30.50
71879;DHT22;59755;43.834;4.364;2023-03-31T13:01:11;27.40;29.80
71879;DHT22;59755;43.834;4.364;2023-03-31T13:06:04;27.70;29.30
71879;DHT22;59755;43.834;4.364;2023-03-31T13:08:50;28.30;28.50
71879;DHT22;59755;43.834;4.364;2023-03-31T13:11:18;28.60;28.00
71879;DHT22;59755;43.834;4.364;2023-03-31T13:13:57;28.60;28.30
71879;DHT22;59755;43.834;4.364;2023-03-31T13:16:23;28.90;27.80
71879;DHT22;59755;43.834;4.364;2023-03-31T13:18:52;28.50;28.30
71879;DHT22;59755;43.834;4.364;2023-03-31T13:21:18;29.00;27.60
71879;DHT22;59755;43.834;4.364;2023-03-31T13:23:44;29.60;26.90
71879;DHT22;59755;43.834;4.364;2023-03-31T13:34:19;31.60;25.10
71879;DHT22;59755;43.834;4.364;2023-03-31T13:36:58;32.60;24.50
71879;DHT22;59755;43.834;4.364;2023-03-31T13:52:43;31.00;25.60
71879;DHT22;59755;43.834;4.364;2023-03-31T13:55:19;30.20;26.30
71879;DHT22;59755;43.834;4.364;2023-03-31T14:03:16;31.60;25.00
71879;DHT22;59755;43.834;4.364;2023-03-31T14:05:44;30.00;26.70
71879;DHT22;59755;43.834;4.364;2023-03-31T14:08:35;31.00;25.80
71879;DHT22;59755;43.834;4.364;2023-03-31T14:11:17;30.90;25.40
71879;DHT22;59755;43.834;4.364;2023-03-31T14:13:42;30.10;26.20
71879;DHT22;59755;43.834;4.364;2023-03-31T14:16:08;30.40;26.00
71879;DHT22;59755;43.834;4.364;2023-03-31T14:18:34;29.70;26.40
71879;DHT22;59755;43.834;4.364;2023-03-31T14:31:16;29.70;26.90
71879;DHT22;59755;43.834;4.364;2023-03-31T14:38:43;28.70;27.70
71879;DHT22;59755;43.834;4.364;2023-03-31T14:41:14;26.20;30.30
71879;DHT22;59755;43.834;4.364;2023-03-31T14:43:43;25.20;31.70
71879;DHT22;59755;43.834;4.364;2023-03-31T14:46:11;24.70;32.30
71879;DHT22;59755;43.834;4.364;2023-03-31T14:48:44;24.30;32.80
71879;DHT22;59755;43.834;4.364;2023-03-31T14:51:10;23.80;33.40
71879;DHT22;59755;43.834;4.364;2023-03-31T14:53:36;23.60;34.10
71879;DHT22;59755;43.834;4.364;2023-03-31T14:56:03;24.50;33.10
71879;DHT22;59755;43.834;4.364;2023-03-31T14:58:35;25.80;31.40
71879;DHT22;59755;43.834;4.364;2023-03-31T15:01:02;27.00;30.00
71879;DHT22;59755;43.834;4.364;2023-03-31T15:03:29;28.00;29.00
71879;DHT22;59755;43.834;4.364;2023-03-31T15:05:59;27.80;28.70
71879;DHT22;59755;43.834;4.364;2023-03-31T15:08:25;27.80;28.80
71879;DHT22;59755;43.834;4.364;2023-03-31T15:10:55;27.60;29.10
71879;DHT22;59755;43.834;4.364;2023-03-31T15:13:27;27.00;29.90
71879;DHT22;59755;43.834;4.364;2023-03-31T15:15:56;26.20;30.50
71879;DHT22;59755;43.834;4.364;2023-03-31T15:18:24;25.50;31.60
71879;DHT22;59755;43.834;4.364;2023-03-31T15:20:49;24.50;33.20
71879;DHT22;59755;43.834;4.364;2023-03-31T15:25:59;22.80;35.90
71879;DHT22;59755;43.834;4.364;2023-03-31T15:28:27;22.70;36.30
71879;DHT22;59755;43.834;4.364;2023-03-31T15:30:53;22.10;36.40
71879;DHT22;59755;43.834;4.364;2023-03-31T15:33:26;21.90;36.60
71879;DHT22;59755;43.834;4.364;2023-03-31T15:35:53;21.80;36.60
71879;DHT22;59755;43.834;4.364;2023-03-31T15:38:18;21.80;36.60
71879;DHT22;59755;43.834;4.364;2023-03-31T15:40:47;21.60;36.80
71879;DHT22;59755;43.834;4.364;2023-03-31T15:43:14;21.70;36.40
71879;DHT22;59755;43.834;4.364;2023-03-31T15:45:51;21.70;35.80
71879;DHT22;59755;43.834;4.364;2023-03-31T15:48:18;21.70;35.20
71879;DHT22;59755;43.834;4.364;2023-03-31T15:50:44;21.60;34.60
71879;DHT22;59755;43.834;4.364;2023-03-31T15:53:24;21.40;35.00
71879;DHT22;59755;43.834;4.364;2023-03-31T15:55:55;21.50;35.20
71879;DHT22;59755;43.834;4.364;2023-03-31T15:58:23;21.20;35.50
71879;DHT22;59755;43.834;4.364;2023-03-31T16:00:52;21.10;35.90
71879;DHT22;59755;43.834;4.364;2023-03-31T16:03:28;21.20;36.30
71879;DHT22;59755;43.834;4.364;2023-03-31T16:06:00;21.20;36.50
71879;DHT22;59755;43.834;4.364;2023-03-31T16:08:29;20.90;37.10
71879;DHT22;59755;43.834;4.364;2023-03-31T16:11:18;20.80;37.00
71879;DHT22;59755;43.834;4.364;2023-03-31T16:13:42;20.60;37.40
71879;DHT22;59755;43.834;4.364;2023-03-31T16:16:11;20.60;37.60
71879;DHT22;59755;43.834;4.364;2023-03-31T16:18:39;20.50;37.60
71879;DHT22;59755;43.834;4.364;2023-03-31T16:21:06;20.50;38.10
71879;DHT22;59755;43.834;4.364;2023-03-31T16:23:34;20.30;38.40
71879;DHT22;59755;43.834;4.364;2023-03-31T16:26:00;20.30;38.60
71879;DHT22;59755;43.834;4.364;2023-03-31T16:28:26;20.20;38.70
71879;DHT22;59755;43.834;4.364;2023-03-31T16:30:53;20.10;38.90
71879;DHT22;59755;43.834;4.364;2023-03-31T16:33:19;20.10;39.10
71879;DHT22;59755;43.834;4.364;2023-03-31T16:35:48;20.10;39.30
71879;DHT22;59755;43.834;4.364;2023-03-31T16:38:18;20.00;39.40
71879;DHT22;59755;43.834;4.364;2023-03-31T16:40:45;19.90;39.30
71879;DHT22;59755;43.834;4.364;2023-03-31T16:43:20;19.70;38.60
71879;DHT22;59755;43.834;4.364;2023-03-31T16:45:47;19.40;39.40
71879;DHT22;59755;43.834;4.364;2023-03-31T16:48:13;19.30;39.50
71879;DHT22;59755;43.834;4.364;2023-03-31T16:53:06;19.50;39.90
71879;DHT22;59755;43.834;4.364;2023-03-31T16:55:33;19.00;40.70
71879;DHT22;59755;43.834;4.364;2023-03-31T16:57:59;18.90;41.10
71879;DHT22;59755;43.834;4.364;2023-03-31T17:00:30;18.90;41.20
71879;DHT22;59755;43.834;4.364;2023-03-31T17:02:56;18.70;41.60
71879;DHT22;59755;43.834;4.364;2023-03-31T17:05:23;18.60;42.00
71879;DHT22;59755;43.834;4.364;2023-03-31T17:07:49;18.50;42.40
71879;DHT22;59755;43.834;4.364;2023-03-31T17:10:15;18.30;42.90
71879;DHT22;59755;43.834;4.364;2023-03-31T17:12:41;18.30;43.00
71879;DHT22;59755;43.834;4.364;2023-03-31T17:15:06;18.30;43.10
71879;DHT22;59755;43.834;4.364;2023-03-31T17:17:32;18.20;43.40
71879;DHT22;59755;43.834;4.364;2023-03-31T17:19:58;18.10;43.80
71879;DHT22;59755;43.834;4.364;2023-03-31T17:22:23;18.10;43.90
71879;DHT22;59755;43.834;4.364;2023-03-31T17:24:49;18.10;44.00
71879;DHT22;59755;43.834;4.364;2023-03-31T17:27:21;18.00;44.30
71879;DHT22;59755;43.834;4.364;2023-03-31T17:29:46;18.00;44.50
71879;DHT22;59755;43.834;4.364;2023-03-31T17:32:12;18.00;44.40
71879;DHT22;59755;43.834;4.364;2023-03-31T17:34:39;17.90;44.80
71879;DHT22;59755;43.834;4.364;2023-03-31T17:37:05;17.80;45.30
71879;DHT22;59755;43.834;4.364;2023-03-31T17:39:31;17.70;45.40
71879;DHT22;59755;43.834;4.364;2023-03-31T17:41:56;17.70;45.60
71879;DHT22;59755;43.834;4.364;2023-03-31T17:44:22;17.60;45.80
71879;DHT22;59755;43.834;4.364;2023-03-31T17:46:48;17.60;45.90
71879;DHT22;59755;43.834;4.364;2023-03-31T17:49:14;17.70;46.00
71879;DHT22;59755;43.834;4.364;2023-03-31T17:51:40;17.60;46.10
71879;DHT22;59755;43.834;4.364;2023-03-31T17:54:05;17.60;46.50
71879;DHT22;59755;43.834;4.364;2023-03-31T17:56:31;17.50;46.80
71879;DHT22;59755;43.834;4.364;2023-03-31T17:58:56;17.40;47.30
71879;DHT22;59755;43.834;4.364;2023-03-31T18:01:22;17.20;47.90
71879;DHT22;59755;43.834;4.364;2023-03-31T18:03:47;17.00;47.60
71879;DHT22;59755;43.834;4.364;2023-03-31T18:06:13;16.70;47.20
71879;DHT22;59755;43.834;4.364;2023-03-31T18:08:40;16.60;46.90
71879;DHT22;59755;43.834;4.364;2023-03-31T18:11:06;16.50;46.90
71879;DHT22;59755;43.834;4.364;2023-03-31T18:13:33;16.40;46.40
71879;DHT22;59755;43.834;4.364;2023-03-31T18:15:59;16.40;45.30
71879;DHT22;59755;43.834;4.364;2023-03-31T18:18:24;16.30;45.40
71879;DHT22;59755;43.834;4.364;2023-03-31T18:20:52;16.30;45.60
71879;DHT22;59755;43.834;4.364;2023-03-31T18:23:18;16.30;45.70
71879;DHT22;59755;43.834;4.364;2023-03-31T18:25:44;16.30;45.80
71879;DHT22;59755;43.834;4.364;2023-03-31T18:28:10;16.40;45.70
71879;DHT22;59755;43.834;4.364;2023-03-31T18:30:36;16.30;45.70
71879;DHT22;59755;43.834;4.364;2023-03-31T18:33:02;16.20;46.00
71879;DHT22;59755;43.834;4.364;2023-03-31T18:35:27;16.10;45.90
71879;DHT22;59755;43.834;4.364;2023-03-31T18:37:53;16.10;45.90
71879;DHT22;59755;43.834;4.364;2023-03-31T18:40:18;16.10;45.90
71879;DHT22;59755;43.834;4.364;2023-03-31T18:42:44;16.00;46.00
71879;DHT22;59755;43.834;4.364;2023-03-31T18:45:10;16.00;46.20